sensor_id;sensor_type;location;lat;lon;timestamp;P1;durP1;ratioP1;P2;durP2;ratioP2
4055;SDS011;2043;52.184;8.690;2023-06-14T00:00:45;12.40;;;3.60;;
4055;SDS011;2043;52.184;8.690;2023-06-14T00:03:12;10.20;;;4.07;;
4055;SDS011;2043;52.184;8.690;2023-06-14T00:05:44;9.53;;;3.97;;
4055;SDS011;2043;52.184;8.690;2023-06-14T00:08:13;18.93;;;4.23;;
4055;SDS011;2043;52.184;8.690;2023-06-14T00:10:40;10.33;;;4.40;;
4055;SDS011;2043;52.184;8.690;2023-06-14T00:13:10;9.50;;;4.20;;
4055;SDS011;2043;52.184;8.690;2023-06-14T00:15:36;7.17;;;4.20;;
4055;SDS011;2043;52.184;8.690;2023-06-14T00:18:04;7.13;;;4.30;;
4055;SDS011;2043;52.184;8.690;2023-06-14T00:20:32;6.43;;;4.20;;
4055;SDS011;2043;52.184;8.690;2023-06-14T00:23:00;8.20;;;3.90;;
4055;SDS011;2043;52.184;8.690;2023-06-14T00:25:27;8.30;;;4.03;;
4055;SDS011;2043;52.184;8.690;2023-06-14T00:27:57;12.70;;;4.57;;
4055;SDS011;2043;52.184;8.690;2023-06-14T00:30:24;11.47;;;4.30;;
4055;SDS011;2043;52.184;8.690;2023-06-14T00:32:51;10.77;;;4.40;;
4055;SDS011;2043;52.184;8.690;2023-06-14T00:35:19;14.67;;;4.70;;
4055;SDS011;2043;52.184;8.690;2023-06-14T00:37:45;8.23;;;4.30;;
4055;SDS011;2043;52.184;8.690;2023-06-14T00:40:12;15.03;;;4.70;;
4055;SDS011;2043;52.184;8.690;2023-06-14T00:42:39;19.00;;;4.07;;
4055;SDS011;2043;52.184;8.690;2023-06-14T00:45:06;11.30;;;4.20;;
4055;SDS011;2043;52.184;8.690;2023-06-14T00:47:35;9.60;;;4.37;;
4055;SDS011;2043;52.184;8.690;2023-06-14T00:50:06;8.47;;;4.30;;
4055;SDS011;2043;52.184;8.690;2023-06-14T00:52:33;10.87;;;3.93;;
4055;SDS011;2043;52.184;8.690;2023-06-14T00:55:00;11.33;;;4.50;;
4055;SDS011;2043;52.184;8.690;2023-06-14T00:57:28;7.73;;;4.43;;
4055;SDS011;2043;52.184;8.690;2023-06-14T00:59:55;14.00;;;4.33;;
4055;SDS011;2043;52.184;8.690;2023-06-14T01:02:22;8.80;;;4.30;;
4055;SDS011;2043;52.184;8.690;2023-06-14T01:04:50;9.60;;;4.23;;
4055;SDS011;2043;52.184;8.690;2023-06-14T01:07:27;11.60;;;4.20;;
4055;SDS011;2043;52.184;8.690;2023-06-14T01:13:20;9.00;;;4.70;;
4055;SDS011;2043;52.184;8.690;2023-06-14T01:15:48;15.77;;;4.50;;
4055;SDS011;2043;52.184;8.690;2023-06-14T01:18:16;9.90;;;4.77;;
4055;SDS011;2043;52.184;8.690;2023-06-14T01:20:45;15.10;;;4.90;;
4055;SDS011;2043;52.184;8.690;2023-06-14T01:23:16;8.97;;;4.73;;
4055;SDS011;2043;52.184;8.690;2023-06-14T01:25:44;8.37;;;4.70;;
4055;SDS011;2043;52.184;8.690;2023-06-14T01:28:13;9.47;;;4.30;;
4055;SDS011;2043;52.184;8.690;2023-06-14T01:30:43;11.83;;;4.80;;
4055;SDS011;2043;52.184;8.690;2023-06-14T01:33:12;9.67;;;4.63;;
4055;SDS011;2043;52.184;8.690;2023-06-14T01:35:44;15.10;;;4.03;;
4055;SDS011;2043;52.184;8.690;2023-06-14T01:38:13;8.77;;;4.70;;
4055;SDS011;2043;52.184;8.690;2023-06-14T01:40:42;10.90;;;4.90;;
4055;SDS011;2043;52.184;8.690;2023-06-14T01:43:11;12.83;;;5.07;;
4055;SDS011;2043;52.184;8.690;2023-06-14T01:45:40;11.40;;;5.13;;
4055;SDS011;2043;52.184;8.690;2023-06-14T01:48:08;13.33;;;4.60;;
4055;SDS011;2043;52.184;8.690;2023-06-14T01:50:35;14.83;;;5.10;;
4055;SDS011;2043;52.184;8.690;2023-06-14T01:53:02;9.07;;;4.70;;
4055;SDS011;2043;52.184;8.690;2023-06-14T01:55:29;10.90;;;5.00;;
4055;SDS011;2043;52.184;8.690;2023-06-14T01:57:59;10.00;;;4.77;;
4055;SDS011;2043;52.184;8.690;2023-06-14T02:00:26;9.77;;;4.43;;
4055;SDS011;2043;52.184;8.690;2023-06-14T02:02:53;11.60;;;5.10;;
4055;SDS011;2043;52.184;8.690;2023-06-14T02:05:20;7.97;;;4.60;;
4055;SDS011;2043;52.184;8.690;2023-06-14T02:07:47;9.33;;;4.73;;
4055;SDS011;2043;52.184;8.690;2023-06-14T02:10:14;10.20;;;4.63;;
4055;SDS011;2043;52.184;8.690;2023-06-14T02:12:42;10.73;;;4.77;;
4055;SDS011;2043;52.184;8.690;2023-06-14T02:15:09;9.60;;;4.40;;
4055;SDS011;2043;52.184;8.690;2023-06-14T02:17:46;20.10;;;5.63;;
4055;SDS011;2043;52.184;8.690;2023-06-14T02:20:16;11.90;;;4.93;;
4055;SDS011;2043;52.184;8.690;2023-06-14T02:22:44;8.60;;;4.57;;
4055;SDS011;2043;52.184;8.690;2023-06-14T02:25:11;10.30;;;4.33;;
4055;SDS011;2043;52.184;8.690;2023-06-14T02:27:38;8.83;;;4.40;;
4055;SDS011;2043;52.184;8.690;2023-06-14T02:30:05;7.47;;;4.53;;
4055;SDS011;2043;52.184;8.690;2023-06-14T02:32:33;11.67;;;4.90;;
4055;SDS011;2043;52.184;8.690;2023-06-14T02:35:03;12.63;;;4.70;;
4055;SDS011;2043;52.184;8.690;2023-06-14T02:37:30;13.93;;;4.80;;
4055;SDS011;2043;52.184;8.690;2023-06-14T02:39:57;9.07;;;4.83;;
4055;SDS011;2043;52.184;8.690;2023-06-14T02:42:24;8.93;;;5.13;;
4055;SDS011;2043;52.184;8.690;2023-06-14T02:44:51;10.57;;;4.73;;
4055;SDS011;2043;52.184;8.690;2023-06-14T02:47:18;12.90;;;4.47;;
4055;SDS011;2043;52.184;8.690;2023-06-14T02:49:45;12.03;;;4.53;;
4055;SDS011;2043;52.184;8.690;2023-06-14T02:52:15;12.90;;;4.87;;
4055;SDS011;2043;52.184;8.690;2023-06-14T02:54:42;14.17;;;4.90;;
4055;SDS011;2043;52.184;8.690;2023-06-14T02:57:09;8.77;;;4.60;;
4055;SDS011;2043;52.184;8.690;2023-06-14T02:59:37;8.00;;;4.50;;
4055;SDS011;2043;52.184;8.690;2023-06-14T03:02:03;11.40;;;5.10;;
4055;SDS011;2043;52.184;8.690;2023-06-14T03:04:31;12.97;;;4.67;;
4055;SDS011;2043;52.184;8.690;2023-06-14T03:07:03;15.07;;;4.20;;
4055;SDS011;2043;52.184;8.690;2023-06-14T03:09:35;10.07;;;4.57;;
4055;SDS011;2043;52.184;8.690;2023-06-14T03:12:03;8.63;;;4.93;;
4055;SDS011;2043;52.184;8.690;2023-06-14T03:14:32;9.30;;;4.90;;
4055;SDS011;2043;52.184;8.690;2023-06-14T03:16:59;8.10;;;5.03;;
4055;SDS011;2043;52.184;8.690;2023-06-14T03:19:26;9.43;;;4.53;;
4055;SDS011;2043;52.184;8.690;2023-06-14T03:21:53;10.03;;;4.90;;
4055;SDS011;2043;52.184;8.690;2023-06-14T03:24:26;12.23;;;5.23;;
4055;SDS011;2043;52.184;8.690;2023-06-14T03:26:58;17.70;;;5.27;;
4055;SDS011;2043;52.184;8.690;2023-06-14T03:29:24;33.73;;;5.53;;
4055;SDS011;2043;52.184;8.690;2023-06-14T03:32:01;7.43;;;4.23;;
4055;SDS011;2043;52.184;8.690;2023-06-14T03:34:29;8.27;;;5.03;;
4055;SDS011;2043;52.184;8.690;2023-06-14T03:36:56;13.80;;;5.60;;
4055;SDS011;2043;52.184;8.690;2023-06-14T03:39:23;22.83;;;5.67;;
4055;SDS011;2043;52.184;8.690;2023-06-14T03:41:50;12.80;;;5.20;;
4055;SDS011;2043;52.184;8.690;2023-06-14T03:44:17;20.67;;;5.17;;
4055;SDS011;2043;52.184;8.690;2023-06-14T03:46:45;13.60;;;5.07;;
4055;SDS011;2043;52.184;8.690;2023-06-14T03:49:12;10.33;;;4.77;;
4055;SDS011;2043;52.184;8.690;2023-06-14T03:51:39;9.03;;;4.83;;
4055;SDS011;2043;52.184;8.690;2023-06-14T03:54:06;10.63;;;4.53;;
4055;SDS011;2043;52.184;8.690;2023-06-14T03:56:36;9.20;;;5.17;;
4055;SDS011;2043;52.184;8.690;2023-06-14T03:59:03;12.10;;;4.20;;
4055;SDS011;2043;52.184;8.690;2023-06-14T04:01:30;15.77;;;5.00;;
4055;SDS011;2043;52.184;8.690;2023-06-14T04:03:57;8.17;;;4.50;;
4055;SDS011;2043;52.184;8.690;2023-06-14T04:06:24;11.90;;;4.60;;
4055;SDS011;2043;52.184;8.690;2023-06-14T04:08:58;12.73;;;4.40;;
4055;SDS011;2043;52.184;8.690;2023-06-14T04:11:30;13.83;;;5.20;;
4055;SDS011;2043;52.184;8.690;2023-06-14T04:13:57;11.27;;;6.03;;
4055;SDS011;2043;52.184;8.690;2023-06-14T04:16:24;7.57;;;4.60;;
4055;SDS011;2043;52.184;8.690;2023-06-14T04:18:52;9.63;;;4.10;;
4055;SDS011;2043;52.184;8.690;2023-06-14T04:21:20;11.40;;;4.77;;
4055;SDS011;2043;52.184;8.690;2023-06-14T04:23:49;11.13;;;4.57;;
4055;SDS011;2043;52.184;8.690;2023-06-14T04:26:19;10.30;;;5.20;;
4055;SDS011;2043;52.184;8.690;2023-06-14T04:28:47;8.97;;;4.97;;
4055;SDS011;2043;52.184;8.690;2023-06-14T04:31:15;12.50;;;4.67;;
4055;SDS011;2043;52.184;8.690;2023-06-14T04:33:42;11.80;;;4.97;;
4055;SDS011;2043;52.184;8.690;2023-06-14T04:36:10;10.63;;;4.60;;
4055;SDS011;2043;52.184;8.690;2023-06-14T04:38:44;7.50;;;4.87;;
4055;SDS011;2043;52.184;8.690;2023-06-14T04:41:15;9.20;;;4.93;;
4055;SDS011;2043;52.184;8.690;2023-06-14T04:43:42;11.87;;;4.43;;
4055;SDS011;2043;52.184;8.690;2023-06-14T04:46:09;12.10;;;4.53;;
4055;SDS011;2043;52.184;8.690;2023-06-14T04:48:41;10.40;;;4.67;;
4055;SDS011;2043;52.184;8.690;2023-06-14T04:51:09;13.33;;;4.60;;
4055;SDS011;2043;52.184;8.690;2023-06-14T04:53:36;6.80;;;3.93;;
4055;SDS011;2043;52.184;8.690;2023-06-14T04:56:03;7.50;;;3.93;;
4055;SDS011;2043;52.184;8.690;2023-06-14T04:58:30;16.60;;;5.00;;
4055;SDS011;2043;52.184;8.690;2023-06-14T05:00:58;8.17;;;3.80;;
4055;SDS011;2043;52.184;8.690;2023-06-14T05:03:25;9.30;;;3.83;;
4055;SDS011;2043;52.184;8.690;2023-06-14T05:05:54;21.27;;;4.97;;
4055;SDS011;2043;52.184;8.690;2023-06-14T05:08:21;8.23;;;4.23;;
4055;SDS011;2043;52.184;8.690;2023-06-14T05:10:50;5.97;;;3.70;;
4055;SDS011;2043;52.184;8.690;2023-06-14T05:13:18;7.70;;;4.20;;
4055;SDS011;2043;52.184;8.690;2023-06-14T05:15:45;6.73;;;4.20;;
4055;SDS011;2043;52.184;8.690;2023-06-14T05:18:12;9.43;;;3.63;;
4055;SDS011;2043;52.184;8.690;2023-06-14T05:20:39;10.50;;;3.83;;
4055;SDS011;2043;52.184;8.690;2023-06-14T05:23:08;6.90;;;3.83;;
4055;SDS011;2043;52.184;8.690;2023-06-14T05:25:42;7.23;;;3.90;;
4055;SDS011;2043;52.184;8.690;2023-06-14T05:28:10;8.30;;;3.50;;
4055;SDS011;2043;52.184;8.690;2023-06-14T05:30:37;6.10;;;3.53;;
4055;SDS011;2043;52.184;8.690;2023-06-14T05:33:06;8.70;;;3.90;;
4055;SDS011;2043;52.184;8.690;2023-06-14T05:35:33;10.23;;;3.77;;
4055;SDS011;2043;52.184;8.690;2023-06-14T05:38:00;9.10;;;3.70;;
4055;SDS011;2043;52.184;8.690;2023-06-14T05:40:27;7.87;;;4.37;;
4055;SDS011;2043;52.184;8.690;2023-06-14T05:42:54;7.50;;;2.97;;
4055;SDS011;2043;52.184;8.690;2023-06-14T05:45:21;9.80;;;3.30;;
4055;SDS011;2043;52.184;8.690;2023-06-14T05:47:48;6.13;;;3.60;;
4055;SDS011;2043;52.184;8.690;2023-06-14T05:50:15;9.17;;;3.63;;
4055;SDS011;2043;52.184;8.690;2023-06-14T05:52:42;11.77;;;4.03;;
4055;SDS011;2043;52.184;8.690;2023-06-14T05:55:09;8.33;;;4.30;;
4055;SDS011;2043;52.184;8.690;2023-06-14T05:57:38;7.13;;;3.60;;
4055;SDS011;2043;52.184;8.690;2023-06-14T06:00:06;9.47;;;4.27;;
4055;SDS011;2043;52.184;8.690;2023-06-14T06:02:37;8.33;;;4.37;;
4055;SDS011;2043;52.184;8.690;2023-06-14T06:05:04;15.63;;;3.33;;
4055;SDS011;2043;52.184;8.690;2023-06-14T06:07:32;5.20;;;3.13;;
4055;SDS011;2043;52.184;8.690;2023-06-14T06:10:02;8.40;;;3.97;;
4055;SDS011;2043;52.184;8.690;2023-06-14T06:12:29;14.43;;;4.00;;
4055;SDS011;2043;52.184;8.690;2023-06-14T06:14:56;8.93;;;3.70;;
4055;SDS011;2043;52.184;8.690;2023-06-14T06:17:24;9.77;;;3.40;;
4055;SDS011;2043;52.184;8.690;2023-06-14T06:19:52;8.97;;;3.70;;
4055;SDS011;2043;52.184;8.690;2023-06-14T06:22:18;9.83;;;3.70;;
4055;SDS011;2043;52.184;8.690;2023-06-14T06:24:45;10.20;;;3.27;;
4055;SDS011;2043;52.184;8.690;2023-06-14T06:27:12;8.30;;;3.97;;
4055;SDS011;2043;52.184;8.690;2023-06-14T06:29:39;5.50;;;3.33;;
4055;SDS011;2043;52.184;8.690;2023-06-14T06:32:05;15.43;;;4.50;;
4055;SDS011;2043;52.184;8.690;2023-06-14T06:34:33;8.20;;;3.30;;
4055;SDS011;2043;52.184;8.690;2023-06-14T06:36:59;12.10;;;2.93;;
4055;SDS011;2043;52.184;8.690;2023-06-14T06:39:27;9.60;;;3.23;;
4055;SDS011;2043;52.184;8.690;2023-06-14T06:41:53;8.97;;;2.90;;
4055;SDS011;2043;52.184;8.690;2023-06-14T06:44:20;6.20;;;3.00;;
4055;SDS011;2043;52.184;8.690;2023-06-14T06:46:47;9.00;;;3.17;;
4055;SDS011;2043;52.184;8.690;2023-06-14T06:49:14;6.60;;;2.90;;
4055;SDS011;2043;52.184;8.690;2023-06-14T06:51:41;5.40;;;2.90;;
4055;SDS011;2043;52.184;8.690;2023-06-14T06:54:09;6.57;;;3.07;;
4055;SDS011;2043;52.184;8.690;2023-06-14T06:56:36;12.63;;;3.40;;
4055;SDS011;2043;52.184;8.690;2023-06-14T06:59:03;6.17;;;2.47;;
4055;SDS011;2043;52.184;8.690;2023-06-14T07:01:30;10.47;;;3.20;;
4055;SDS011;2043;52.184;8.690;2023-06-14T07:04:00;8.40;;;2.60;;
4055;SDS011;2043;52.184;8.690;2023-06-14T07:06:26;10.20;;;3.03;;
4055;SDS011;2043;52.184;8.690;2023-06-14T07:08:53;8.90;;;3.10;;
4055;SDS011;2043;52.184;8.690;2023-06-14T07:11:20;7.67;;;3.20;;
4055;SDS011;2043;52.184;8.690;2023-06-14T07:13:47;7.80;;;3.10;;
4055;SDS011;2043;52.184;8.690;2023-06-14T07:16:14;6.30;;;2.80;;
4055;SDS011;2043;52.184;8.690;2023-06-14T07:18:41;7.50;;;3.03;;
4055;SDS011;2043;52.184;8.690;2023-06-14T07:21:08;6.43;;;2.77;;
4055;SDS011;2043;52.184;8.690;2023-06-14T07:23:34;7.23;;;3.30;;
4055;SDS011;2043;52.184;8.690;2023-06-14T07:26:01;6.20;;;2.77;;
4055;SDS011;2043;52.184;8.690;2023-06-14T07:28:29;5.17;;;2.80;;
4055;SDS011;2043;52.184;8.690;2023-06-14T07:30:55;10.63;;;3.13;;
4055;SDS011;2043;52.184;8.690;2023-06-14T07:33:22;6.83;;;3.20;;
4055;SDS011;2043;52.184;8.690;2023-06-14T07:35:49;10.30;;;3.10;;
4055;SDS011;2043;52.184;8.690;2023-06-14T07:38:16;11.90;;;3.13;;
4055;SDS011;2043;52.184;8.690;2023-06-14T07:40:43;16.83;;;3.03;;
4055;SDS011;2043;52.184;8.690;2023-06-14T07:43:10;6.67;;;2.53;;
4055;SDS011;2043;52.184;8.690;2023-06-14T07:45:37;4.87;;;2.63;;
4055;SDS011;2043;52.184;8.690;2023-06-14T07:48:04;7.43;;;3.17;;
4055;SDS011;2043;52.184;8.690;2023-06-14T07:50:31;6.07;;;2.90;;
4055;SDS011;2043;52.184;8.690;2023-06-14T07:52:57;5.70;;;2.73;;
4055;SDS011;2043;52.184;8.690;2023-06-14T07:55:24;8.20;;;3.37;;
4055;SDS011;2043;52.184;8.690;2023-06-14T07:57:51;8.80;;;3.10;;
4055;SDS011;2043;52.184;8.690;2023-06-14T08:00:18;11.40;;;2.90;;
4055;SDS011;2043;52.184;8.690;2023-06-14T08:02:46;9.63;;;2.37;;
4055;SDS011;2043;52.184;8.690;2023-06-14T08:05:13;5.10;;;2.80;;
4055;SDS011;2043;52.184;8.690;2023-06-14T08:07:40;9.20;;;3.00;;
4055;SDS011;2043;52.184;8.690;2023-06-14T08:10:07;5.50;;;2.97;;
4055;SDS011;2043;52.184;8.690;2023-06-14T08:12:34;10.33;;;3.07;;
4055;SDS011;2043;52.184;8.690;2023-06-14T08:15:03;7.83;;;3.03;;
4055;SDS011;2043;52.184;8.690;2023-06-14T08:17:39;7.43;;;2.93;;
4055;SDS011;2043;52.184;8.690;2023-06-14T08:20:06;10.40;;;3.10;;
4055;SDS011;2043;52.184;8.690;2023-06-14T08:22:34;7.73;;;2.90;;
4055;SDS011;2043;52.184;8.690;2023-06-14T08:25:02;6.60;;;3.20;;
4055;SDS011;2043;52.184;8.690;2023-06-14T08:27:30;10.53;;;3.43;;
4055;SDS011;2043;52.184;8.690;2023-06-14T08:29:57;8.30;;;2.57;;
4055;SDS011;2043;52.184;8.690;2023-06-14T08:32:23;7.33;;;3.00;;
4055;SDS011;2043;52.184;8.690;2023-06-14T08:34:50;7.97;;;3.10;;
4055;SDS011;2043;52.184;8.690;2023-06-14T08:37:30;9.10;;;2.97;;
4055;SDS011;2043;52.184;8.690;2023-06-14T08:39:56;5.30;;;2.77;;
4055;SDS011;2043;52.184;8.690;2023-06-14T08:42:23;6.10;;;3.07;;
4055;SDS011;2043;52.184;8.690;2023-06-14T08:44:57;10.10;;;2.60;;
4055;SDS011;2043;52.184;8.690;2023-06-14T08:47:26;4.40;;;2.50;;
4055;SDS011;2043;52.184;8.690;2023-06-14T08:49:55;4.97;;;2.70;;
4055;SDS011;2043;52.184;8.690;2023-06-14T08:52:24;5.20;;;2.10;;
4055;SDS011;2043;52.184;8.690;2023-06-14T08:54:56;5.90;;;2.70;;
4055;SDS011;2043;52.184;8.690;2023-06-14T08:57:23;5.00;;;2.40;;
4055;SDS011;2043;52.184;8.690;2023-06-14T08:59:51;6.40;;;2.33;;
4055;SDS011;2043;52.184;8.690;2023-06-14T09:02:19;9.20;;;2.80;;
4055;SDS011;2043;52.184;8.690;2023-06-14T09:04:48;5.43;;;2.57;;
4055;SDS011;2043;52.184;8.690;2023-06-14T09:07:18;5.93;;;2.63;;
4055;SDS011;2043;52.184;8.690;2023-06-14T09:09:45;6.83;;;2.83;;
4055;SDS011;2043;52.184;8.690;2023-06-14T09:12:31;7.23;;;2.80;;
4055;SDS011;2043;52.184;8.690;2023-06-14T09:14:58;4.80;;;2.67;;
4055;SDS011;2043;52.184;8.690;2023-06-14T09:17:26;5.00;;;2.37;;
4055;SDS011;2043;52.184;8.690;2023-06-14T09:19:54;6.77;;;3.00;;
4055;SDS011;2043;52.184;8.690;2023-06-14T09:22:21;16.73;;;2.90;;
4055;SDS011;2043;52.184;8.690;2023-06-14T09:24:48;6.80;;;2.70;;
4055;SDS011;2043;52.184;8.690;2023-06-14T09:27:15;8.63;;;2.23;;
4055;SDS011;2043;52.184;8.690;2023-06-14T09:29:42;9.57;;;2.80;;
4055;SDS011;2043;52.184;8.690;2023-06-14T09:32:09;7.00;;;2.80;;
4055;SDS011;2043;52.184;8.690;2023-06-14T09:34:36;7.17;;;2.70;;
4055;SDS011;2043;52.184;8.690;2023-06-14T09:37:03;12.70;;;2.90;;
4055;SDS011;2043;52.184;8.690;2023-06-14T09:39:30;10.43;;;2.40;;
4055;SDS011;2043;52.184;8.690;2023-06-14T09:41:57;8.30;;;2.40;;
4055;SDS011;2043;52.184;8.690;2023-06-14T09:44:25;7.13;;;2.80;;
4055;SDS011;2043;52.184;8.690;2023-06-14T09:46:55;8.50;;;2.43;;
4055;SDS011;2043;52.184;8.690;2023-06-14T09:49:22;8.47;;;2.90;;
4055;SDS011;2043;52.184;8.690;2023-06-14T09:51:51;5.17;;;2.70;;
4055;SDS011;2043;52.184;8.690;2023-06-14T09:54:21;13.83;;;2.83;;
4055;SDS011;2043;52.184;8.690;2023-06-14T09:56:49;6.23;;;2.80;;
4055;SDS011;2043;52.184;8.690;2023-06-14T09:59:21;5.90;;;2.70;;
4055;SDS011;2043;52.184;8.690;2023-06-14T10:01:55;6.63;;;3.10;;
4055;SDS011;2043;52.184;8.690;2023-06-14T10:04:26;12.90;;;2.93;;
4055;SDS011;2043;52.184;8.690;2023-06-14T10:06:55;8.83;;;2.60;;
4055;SDS011;2043;52.184;8.690;2023-06-14T10:09:22;9.10;;;4.00;;
4055;SDS011;2043;52.184;8.690;2023-06-14T10:11:49;6.80;;;3.40;;
4055;SDS011;2043;52.184;8.690;2023-06-14T10:14:16;6.23;;;3.30;;
4055;SDS011;2043;52.184;8.690;2023-06-14T10:19:18;5.33;;;2.87;;
4055;SDS011;2043;52.184;8.690;2023-06-14T10:24:43;4.40;;;2.60;;
4055;SDS011;2043;52.184;8.690;2023-06-14T10:27:15;4.97;;;2.53;;
4055;SDS011;2043;52.184;8.690;2023-06-14T10:32:20;4.10;;;2.70;;
4055;SDS011;2043;52.184;8.690;2023-06-14T10:34:56;6.80;;;3.00;;
4055;SDS011;2043;52.184;8.690;2023-06-14T10:37:25;5.77;;;2.60;;
4055;SDS011;2043;52.184;8.690;2023-06-14T10:39:52;8.57;;;2.63;;
4055;SDS011;2043;52.184;8.690;2023-06-14T10:42:22;6.10;;;2.70;;
4055;SDS011;2043;52.184;8.690;2023-06-14T10:45:03;5.87;;;2.70;;
4055;SDS011;2043;52.184;8.690;2023-06-14T10:47:33;7.30;;;2.87;;
4055;SDS011;2043;52.184;8.690;2023-06-14T10:52:29;11.10;;;3.00;;
4055;SDS011;2043;52.184;8.690;2023-06-14T10:55:02;7.93;;;2.97;;
4055;SDS011;2043;52.184;8.690;2023-06-14T10:57:42;6.83;;;2.70;;
4055;SDS011;2043;52.184;8.690;2023-06-14T11:00:36;6.30;;;2.67;;
4055;SDS011;2043;52.184;8.690;2023-06-14T11:06:19;5.23;;;2.67;;
4055;SDS011;2043;52.184;8.690;2023-06-14T11:10:00;10.83;;;2.80;;
4055;SDS011;2043;52.184;8.690;2023-06-14T11:12:09;7.07;;;2.57;;
4055;SDS011;2043;52.184;8.690;2023-06-14T11:14:39;5.17;;;2.53;;
4055;SDS011;2043;52.184;8.690;2023-06-14T11:17:06;5.53;;;3.23;;
4055;SDS011;2043;52.184;8.690;2023-06-14T11:19:33;4.40;;;2.40;;
4055;SDS011;2043;52.184;8.690;2023-06-14T11:21:59;3.80;;;2.10;;
4055;SDS011;2043;52.184;8.690;2023-06-14T11:24:26;10.40;;;2.73;;
4055;SDS011;2043;52.184;8.690;2023-06-14T11:26:55;5.93;;;2.80;;
4055;SDS011;2043;52.184;8.690;2023-06-14T11:29:23;6.17;;;2.73;;
4055;SDS011;2043;52.184;8.690;2023-06-14T11:31:50;4.50;;;2.20;;
4055;SDS011;2043;52.184;8.690;2023-06-14T11:34:17;5.17;;;2.80;;
4055;SDS011;2043;52.184;8.690;2023-06-14T11:36:44;5.80;;;2.47;;
4055;SDS011;2043;52.184;8.690;2023-06-14T11:39:13;9.77;;;2.73;;
4055;SDS011;2043;52.184;8.690;2023-06-14T11:41:42;15.40;;;2.50;;
4055;SDS011;2043;52.184;8.690;2023-06-14T11:44:10;5.20;;;2.30;;
4055;SDS011;2043;52.184;8.690;2023-06-14T11:46:38;8.33;;;2.60;;
4055;SDS011;2043;52.184;8.690;2023-06-14T11:49:05;6.03;;;2.60;;
4055;SDS011;2043;52.184;8.690;2023-06-14T11:51:34;7.13;;;2.60;;
4055;SDS011;2043;52.184;8.690;2023-06-14T11:54:01;4.50;;;2.50;;
4055;SDS011;2043;52.184;8.690;2023-06-14T11:56:30;5.37;;;2.30;;
4055;SDS011;2043;52.184;8.690;2023-06-14T11:58:58;4.13;;;2.50;;
4055;SDS011;2043;52.184;8.690;2023-06-14T12:01:26;7.70;;;2.60;;
4055;SDS011;2043;52.184;8.690;2023-06-14T12:03:53;11.33;;;2.50;;
4055;SDS011;2043;52.184;8.690;2023-06-14T12:06:28;6.50;;;2.30;;
4055;SDS011;2043;52.184;8.690;2023-06-14T12:08:59;7.03;;;2.70;;
4055;SDS011;2043;52.184;8.690;2023-06-14T12:11:34;5.50;;;2.70;;
4055;SDS011;2043;52.184;8.690;2023-06-14T12:14:05;6.27;;;2.53;;
4055;SDS011;2043;52.184;8.690;2023-06-14T12:16:32;5.90;;;2.60;;
4055;SDS011;2043;52.184;8.690;2023-06-14T12:19:12;9.40;;;2.50;;
4055;SDS011;2043;52.184;8.690;2023-06-14T12:21:40;4.30;;;2.33;;
4055;SDS011;2043;52.184;8.690;2023-06-14T12:24:09;6.73;;;2.80;;
4055;SDS011;2043;52.184;8.690;2023-06-14T12:26:39;8.17;;;2.50;;
4055;SDS011;2043;52.184;8.690;2023-06-14T12:29:07;4.07;;;2.47;;
4055;SDS011;2043;52.184;8.690;2023-06-14T12:31:34;3.60;;;2.20;;
4055;SDS011;2043;52.184;8.690;2023-06-14T12:34:01;7.07;;;2.40;;
4055;SDS011;2043;52.184;8.690;2023-06-14T12:36:27;10.27;;;2.70;;
4055;SDS011;2043;52.184;8.690;2023-06-14T12:38:54;5.43;;;2.60;;
4055;SDS011;2043;52.184;8.690;2023-06-14T12:41:21;7.57;;;2.83;;
4055;SDS011;2043;52.184;8.690;2023-06-14T12:43:48;7.07;;;2.93;;
4055;SDS011;2043;52.184;8.690;2023-06-14T12:46:15;9.13;;;2.90;;
4055;SDS011;2043;52.184;8.690;2023-06-14T12:48:42;7.60;;;2.60;;
4055;SDS011;2043;52.184;8.690;2023-06-14T12:51:09;5.90;;;2.70;;
4055;SDS011;2043;52.184;8.690;2023-06-14T12:53:36;5.47;;;2.50;;
4055;SDS011;2043;52.184;8.690;2023-06-14T12:56:02;4.47;;;2.40;;
4055;SDS011;2043;52.184;8.690;2023-06-14T12:58:29;6.23;;;3.00;;
4055;SDS011;2043;52.184;8.690;2023-06-14T13:00:56;5.13;;;2.40;;
4055;SDS011;2043;52.184;8.690;2023-06-14T13:03:23;4.90;;;2.70;;
4055;SDS011;2043;52.184;8.690;2023-06-14T13:05:50;9.63;;;2.77;;
4055;SDS011;2043;52.184;8.690;2023-06-14T13:08:16;5.80;;;2.87;;
4055;SDS011;2043;52.184;8.690;2023-06-14T13:10:43;6.53;;;2.40;;
4055;SDS011;2043;52.184;8.690;2023-06-14T13:13:10;13.10;;;2.80;;
4055;SDS011;2043;52.184;8.690;2023-06-14T13:15:38;5.13;;;3.30;;
4055;SDS011;2043;52.184;8.690;2023-06-14T13:18:06;7.53;;;3.00;;
4055;SDS011;2043;52.184;8.690;2023-06-14T13:20:33;4.63;;;2.90;;
4055;SDS011;2043;52.184;8.690;2023-06-14T13:22:59;5.23;;;3.17;;
4055;SDS011;2043;52.184;8.690;2023-06-14T13:25:28;8.30;;;4.10;;
4055;SDS011;2043;52.184;8.690;2023-06-14T13:27:55;10.80;;;3.20;;
4055;SDS011;2043;52.184;8.690;2023-06-14T13:30:21;7.87;;;3.33;;
4055;SDS011;2043;52.184;8.690;2023-06-14T13:32:48;6.90;;;3.20;;
4055;SDS011;2043;52.184;8.690;2023-06-14T13:35:17;6.30;;;3.77;;
4055;SDS011;2043;52.184;8.690;2023-06-14T13:37:44;12.70;;;3.27;;
4055;SDS011;2043;52.184;8.690;2023-06-14T13:40:11;9.27;;;4.00;;
4055;SDS011;2043;52.184;8.690;2023-06-14T13:42:38;14.73;;;3.47;;
4055;SDS011;2043;52.184;8.690;2023-06-14T13:45:06;6.30;;;3.00;;
4055;SDS011;2043;52.184;8.690;2023-06-14T13:47:34;7.80;;;3.67;;
4055;SDS011;2043;52.184;8.690;2023-06-14T13:50:01;7.80;;;3.33;;
4055;SDS011;2043;52.184;8.690;2023-06-14T13:52:29;8.60;;;3.60;;
4055;SDS011;2043;52.184;8.690;2023-06-14T13:54:56;13.33;;;3.47;;
4055;SDS011;2043;52.184;8.690;2023-06-14T13:57:23;7.43;;;3.17;;
4055;SDS011;2043;52.184;8.690;2023-06-14T13:59:50;8.33;;;3.20;;
4055;SDS011;2043;52.184;8.690;2023-06-14T14:02:16;8.77;;;3.50;;
4055;SDS011;2043;52.184;8.690;2023-06-14T14:04:43;7.40;;;3.17;;
4055;SDS011;2043;52.184;8.690;2023-06-14T14:07:10;5.90;;;3.47;;
4055;SDS011;2043;52.184;8.690;2023-06-14T14:09:37;8.77;;;3.57;;
4055;SDS011;2043;52.184;8.690;2023-06-14T14:12:04;8.00;;;3.60;;
4055;SDS011;2043;52.184;8.690;2023-06-14T14:14:31;6.87;;;3.70;;
4055;SDS011;2043;52.184;8.690;2023-06-14T14:16:58;8.90;;;3.30;;
4055;SDS011;2043;52.184;8.690;2023-06-14T14:19:25;5.90;;;3.50;;
4055;SDS011;2043;52.184;8.690;2023-06-14T14:21:52;10.03;;;3.87;;
4055;SDS011;2043;52.184;8.690;2023-06-14T14:24:20;7.40;;;3.63;;
4055;SDS011;2043;52.184;8.690;2023-06-14T14:26:47;10.67;;;4.00;;
4055;SDS011;2043;52.184;8.690;2023-06-14T14:29:15;7.83;;;4.03;;
4055;SDS011;2043;52.184;8.690;2023-06-14T14:31:44;5.67;;;3.73;;
4055;SDS011;2043;52.184;8.690;2023-06-14T14:34:11;11.17;;;3.80;;
4055;SDS011;2043;52.184;8.690;2023-06-14T14:36:38;5.13;;;3.47;;
4055;SDS011;2043;52.184;8.690;2023-06-14T14:39:08;7.87;;;3.53;;
4055;SDS011;2043;52.184;8.690;2023-06-14T14:41:35;8.87;;;3.70;;
4055;SDS011;2043;52.184;8.690;2023-06-14T14:44:07;7.23;;;3.60;;
4055;SDS011;2043;52.184;8.690;2023-06-14T14:46:34;7.93;;;3.70;;
4055;SDS011;2043;52.184;8.690;2023-06-14T14:49:01;7.17;;;3.57;;
4055;SDS011;2043;52.184;8.690;2023-06-14T14:51:28;9.60;;;4.00;;
4055;SDS011;2043;52.184;8.690;2023-06-14T14:53:55;10.47;;;3.77;;
4055;SDS011;2043;52.184;8.690;2023-06-14T14:56:22;7.57;;;3.83;;
4055;SDS011;2043;52.184;8.690;2023-06-14T14:58:49;13.10;;;4.73;;
4055;SDS011;2043;52.184;8.690;2023-06-14T15:01:17;9.40;;;3.67;;
4055;SDS011;2043;52.184;8.690;2023-06-14T15:03:44;10.93;;;4.33;;
4055;SDS011;2043;52.184;8.690;2023-06-14T15:06:25;8.20;;;3.57;;
4055;SDS011;2043;52.184;8.690;2023-06-14T15:08:52;7.47;;;3.60;;
4055;SDS011;2043;52.184;8.690;2023-06-14T15:11:18;11.47;;;3.73;;
4055;SDS011;2043;52.184;8.690;2023-06-14T15:13:46;10.10;;;3.60;;
4055;SDS011;2043;52.184;8.690;2023-06-14T15:16:13;6.37;;;4.03;;
4055;SDS011;2043;52.184;8.690;2023-06-14T15:18:40;8.70;;;4.30;;
4055;SDS011;2043;52.184;8.690;2023-06-14T15:21:07;8.70;;;5.70;;
4055;SDS011;2043;52.184;8.690;2023-06-14T15:23:34;6.40;;;3.67;;
4055;SDS011;2043;52.184;8.690;2023-06-14T15:26:00;9.23;;;4.00;;
4055;SDS011;2043;52.184;8.690;2023-06-14T15:28:27;8.20;;;4.10;;
4055;SDS011;2043;52.184;8.690;2023-06-14T15:30:55;8.77;;;3.70;;
4055;SDS011;2043;52.184;8.690;2023-06-14T15:33:22;6.80;;;3.80;;